Time;durP1;ratioP1;P1;durP2;ratioP2;P2;SDS_P1;SDS_P2;PMS_P1;PMS_P2;Temp;Humidity;BMP_temperature;BMP_pressure;BME280_temperature;BME280_humidity;BME280_pressure;Samples;Min_cycle;Max_cycle;Signal;HPM_P1;HPM_P2
2022/11/21 00:00:54;;;;;;;18.42;6.05;;;;;;;5.22;100.00;100363.31;5261967;28;20040;-70
2022/11/21 00:03:25;;;;;;;12.43;6.00;;;;;;;5.17;100.00;100365.03;5261198;28;20411;-71
2022/11/21 00:05:57;;;;;;;13.37;6.83;;;;;;;5.13;100.00;100372.75;5261627;28;20035;-71
2022/11/21 00:08:29;;;;;;;20.80;5.97;;;;;;;5.06;100.00;100374.47;5260279;28;20464;-71
2022/11/21 00:11:00;;;;;;;14.57;6.00;;;;;;;5.02;100.00;100378.75;5261887;28;20095;-71
2022/11/21 00:13:32;;;;;;;23.27;6.87;;;;;;;4.99;100.00;100383.91;5261019;28;20263;-72
2022/11/21 00:16:06;;;;;;;17.58;6.95;;;;;;;4.92;100.00;100384.75;5261992;28;20036;-71
2022/11/21 00:18:38;;;;;;;16.95;7.18;;;;;;;4.87;100.00;100386.44;5261125;28;20071;-71
2022/11/21 00:21:14;;;;;;;17.23;6.20;;;;;;;4.85;100.00;100386.44;5262087;28;20493;-71
2022/11/21 00:23:46;;;;;;;20.40;7.13;;;;;;;4.85;100.00;100393.34;5260814;28;20338;-71
2022/11/21 00:26:18;;;;;;;28.48;7.57;;;;;;;4.91;100.00;100404.56;5262133;28;20032;-71
2022/11/21 00:28:49;;;;;;;23.67;8.30;;;;;;;4.93;100.00;100397.66;5259537;28;20051;-71
2022/11/21 00:31:22;;;;;;;22.97;8.67;;;;;;;4.98;100.00;100384.78;5261671;28;20098;-71
2022/11/21 00:33:53;;;;;;;21.85;6.47;;;;;;;4.97;100.00;100382.19;5262034;28;20036;-71
2022/11/21 00:36:25;;;;;;;23.53;6.33;;;;;;;5.00;100.00;100390.78;5265523;28;20412;-71
2022/11/21 00:38:56;;;;;;;16.63;7.17;;;;;;;4.95;100.00;100389.06;5264959;28;20032;-71
2022/11/21 00:41:27;;;;;;;18.97;5.17;;;;;;;4.85;100.00;100383.84;5264316;28;20033;-71
2022/11/21 00:43:59;;;;;;;16.60;5.43;;;;;;;4.79;100.00;100383.81;5264554;28;20060;-71
2022/11/21 00:46:30;;;;;;;21.93;5.83;;;;;;;4.79;100.00;100382.97;5265380;28;20037;-71
2022/11/21 00:49:01;;;;;;;25.77;6.77;;;;;;;4.78;100.00;100373.50;5264580;28;20037;-71
2022/11/21 00:51:33;;;;;;;21.30;6.77;;;;;;;4.75;100.00;100370.03;5264134;28;20037;-73
2022/11/21 00:54:04;;;;;;;18.93;6.97;;;;;;;4.75;100.00;100369.19;5262946;28;20033;-72
2022/11/21 00:56:36;;;;;;;29.70;6.30;;;;;;;4.77;100.00;100382.97;5265717;28;20111;-71
2022/11/21 00:59:07;;;;;;;23.53;6.47;;;;;;;4.70;100.00;100376.03;5264423;28;20041;-71
2022/11/21 01:01:38;;;;;;;21.37;7.63;;;;;;;4.66;100.00;100379.47;5265056;28;20109;-71
2022/11/21 01:04:10;;;;;;;18.13;5.20;;;;;;;4.61;100.00;100381.19;5264152;28;20032;-70
2022/11/21 01:06:41;;;;;;;23.00;5.83;;;;;;;4.55;100.00;100379.41;5264401;28;20037;-72
2022/11/21 01:09:13;;;;;;;24.60;7.30;;;;;;;4.48;100.00;100382.81;5263425;28;20477;-70
2022/11/21 01:11:44;;;;;;;24.47;7.73;;;;;;;4.43;100.00;100376.75;5264411;28;20087;-74
2022/11/21 01:14:15;;;;;;;29.10;6.77;;;;;;;4.35;100.00;100384.47;5264149;28;20040;-71
2022/11/21 01:16:47;;;;;;;27.50;7.23;;;;;;;4.30;100.00;100381.84;5263274;28;20029;-71
2022/11/21 01:19:19;;;;;;;29.08;7.25;;;;;;;4.33;100.00;100381.88;5264176;28;20063;-71
2022/11/21 01:21:50;;;;;;;27.57;7.40;;;;;;;4.32;100.00;100382.72;5264561;28;20112;-71
2022/11/21 01:24:21;;;;;;;28.00;8.23;;;;;;;4.35;100.00;100381.88;5264093;28;20033;-71
2022/11/21 01:26:54;;;;;;;25.77;8.57;;;;;;;4.34;100.00;100388.75;5263938;28;20373;-71
2022/11/21 01:29:26;;;;;;;25.35;7.68;;;;;;;4.26;100.00;100380.09;5263278;28;20483;-72
2022/11/21 01:31:58;;;;;;;21.90;7.25;;;;;;;4.30;100.00;100383.53;5264331;28;20095;-71
2022/11/21 01:34:29;;;;;;;24.60;7.20;;;;;;;4.23;100.00;100380.06;5264037;28;20438;-71
2022/11/21 01:37:01;;;;;;;16.40;5.90;;;;;;;4.17;100.00;100378.34;5263986;28;20029;-71
2022/11/21 01:39:32;;;;;;;25.15;7.13;;;;;;;4.07;100.00;100375.66;5263966;28;20035;-71
2022/11/21 01:42:04;;;;;;;28.67;7.77;;;;;;;4.01;100.00;100377.34;5263971;28;20041;-71
2022/11/21 01:44:52;;;;;;;23.47;6.97;;;;;;;3.96;100.00;100376.47;5263760;28;20044;-71
2022/11/21 01:47:23;;;;;;;18.50;6.72;;;;;;;3.99;100.00;100378.19;5263861;28;20056;-71
2022/11/21 01:49:55;;;;;;;21.53;6.47;;;;;;;3.92;100.00;100381.59;5263575;28;20029;-72
2022/11/21 01:52:30;;;;;;;20.43;6.80;;;;;;;3.94;100.00;100377.28;5263695;28;20029;-71
2022/11/21 01:55:05;;;;;;;22.23;6.55;;;;;;;3.95;100.00;100369.56;5263475;28;20025;-71
2022/11/21 01:57:42;;;;;;;19.63;6.72;;;;;;;3.84;100.00;100379.78;5264057;28;20036;-71
2022/11/21 02:00:41;;;;;;;28.40;7.45;;;;;;;3.76;100.00;100375.44;5263535;28;20032;-71
2022/11/21 02:03:18;;;;;;;17.25;7.28;;;;;;;3.72;100.00;100363.34;5260289;28;20046;-72
2022/11/21 02:05:51;;;;;;;26.80;7.82;;;;;;;3.63;100.00;100366.72;5263834;28;20025;-71
2022/11/21 02:08:25;;;;;;;18.30;6.55;;;;;;;3.59;100.00;100372.69;5263030;28;20385;-71
2022/11/21 02:11:28;;;;;;;16.98;6.60;;;;;;;3.51;100.00;100370.06;5262408;28;20021;-73
2022/11/21 02:14:00;;;;;;;;;;;;;;;3.48;100.00;100375.19;5263137;28;20486;-71
2022/11/21 02:16:32;;;;;;;24.17;6.95;;;;;;;3.50;100.00;100376.06;5262214;28;19916;-72
2022/11/21 02:19:04;;;;;;;24.80;6.93;;;;;;;3.47;100.00;100371.72;5263118;28;20033;-71
2022/11/21 02:21:52;;;;;;;26.73;7.47;;;;;;;3.43;100.00;100382.88;5263123;28;20029;-71
2022/11/21 02:24:31;;;;;;;20.00;8.63;;;;;;;3.42;100.00;100398.31;5261895;28;20102;-71
2022/11/21 02:27:02;;;;;;;23.58;10.05;;;;;;;3.40;100.00;100389.72;5262639;28;20483;-71
2022/11/21 02:29:34;;;;;;;24.73;9.77;;;;;;;3.37;100.00;100398.25;5262451;28;20037;-71
2022/11/21 02:32:05;;;;;;;22.13;10.07;;;;;;;3.32;100.00;100391.31;5263291;28;20037;-72
2022/11/21 02:34:37;;;;;;;18.90;8.30;;;;;;;3.21;100.00;100391.22;5263093;28;20029;-72
2022/11/21 02:37:09;;;;;;;15.70;8.67;;;;;;;3.17;100.00;100389.44;5261579;28;20033;-71
2022/11/21 02:39:41;;;;;;;19.30;7.80;;;;;;;3.17;100.00;100382.59;5262781;28;20094;-71
2022/11/21 02:42:42;;;;;;;27.05;8.27;;;;;;;3.19;100.00;100388.63;5262738;28;20115;-71
2022/11/21 02:45:19;;;;;;;229.13;24.88;;;;;;;3.20;100.00;100399.78;5262946;28;20032;-71
2022/11/21 02:47:54;;;;;;;124.20;22.08;;;;;;;3.26;100.00;100394.72;5262392;28;20107;-71
2022/11/21 02:50:38;;;;;;;234.32;33.38;;;;;;;3.27;100.00;100404.19;5263086;28;20115;-71
2022/11/21 02:53:15;;;;;;;109.88;25.00;;;;;;;3.34;100.00;100390.50;5262233;28;20359;-71
2022/11/21 02:55:47;;;;;;;89.90;26.02;;;;;;;3.38;100.00;100399.13;5261884;28;20525;-72
2022/11/21 02:58:18;;;;;;;80.83;23.40;;;;;;;3.41;100.00;100392.31;5261935;28;20045;-71
2022/11/21 03:00:49;;;;;;;92.27;26.40;;;;;;;3.41;100.00;100396.56;5261245;28;20037;-72
2022/11/21 03:03:21;;;;;;;150.47;32.93;;;;;;;3.36;100.00;100395.66;5261209;28;20163;-73
2022/11/21 03:05:53;;;;;;;69.10;26.00;;;;;;;3.34;100.00;100389.66;5261602;28;20610;-71
2022/11/21 03:08:25;;;;;;;101.63;30.85;;;;;;;3.34;100.00;100390.50;5261699;28;20448;-71
2022/11/21 03:10:56;;;;;;;118.63;30.27;;;;;;;3.32;100.00;100393.91;5262463;28;20029;-71
2022/11/21 03:13:27;;;;;;;184.57;37.67;;;;;;;3.25;100.00;100391.28;5261369;28;20044;-71
2022/11/21 03:15:59;;;;;;;239.27;41.20;;;;;;;3.27;100.00;100389.56;5262361;28;20052;-71
2022/11/21 03:18:30;;;;;;;155.30;34.23;;;;;;;3.36;100.00;100382.78;5260545;28;20052;-71
2022/11/21 03:21:01;;;;;;;131.43;35.20;;;;;;;3.36;100.00;100386.22;5261313;28;20033;-71
2022/11/21 03:23:33;;;;;;;97.73;31.33;;;;;;;3.40;100.00;100381.97;5261576;28;20037;-71
2022/11/21 03:26:04;;;;;;;125.03;34.00;;;;;;;3.38;100.00;100376.81;5262486;28;20110;-74
2022/11/21 03:28:35;;;;;;;78.83;31.27;;;;;;;3.44;100.00;100379.44;5261401;28;20067;-71
2022/11/21 03:31:07;;;;;;;130.03;34.53;;;;;;;3.41;100.00;100378.53;5262505;28;20025;-71
2022/11/21 03:33:38;;;;;;;104.17;31.47;;;;;;;3.46;100.00;100371.72;5261502;28;20041;-71
2022/11/21 03:36:09;;;;;;;79.13;31.47;;;;;;;3.47;100.00;100369.16;5262332;28;20064;-70
2022/11/21 03:38:41;;;;;;;157.73;36.23;;;;;;;3.38;100.00;100381.97;5261473;28;20037;-70
2022/11/21 03:41:30;;;;;;;81.27;30.93;;;;;;;3.46;100.00;100382.03;5261908;28;20037;-70
2022/11/21 03:44:08;;;;;;;134.02;33.05;;;;;;;3.39;100.00;100370.78;5261309;28;20043;-70
2022/11/21 03:46:42;;;;;;;187.20;36.03;;;;;;;3.39;100.00;100359.63;5261894;28;20521;-70
2022/11/21 03:49:15;;;;;;;158.95;35.25;;;;;;;3.37;100.00;100376.81;5260994;28;20028;-70
2022/11/21 03:51:46;;;;;;;148.75;33.33;;;;;;;3.40;100.00;100366.53;5261836;28;20033;-71
2022/11/21 03:54:18;;;;;;;150.43;34.37;;;;;;;3.40;100.00;100364.81;5260167;28;20045;-71
2022/11/21 03:56:49;;;;;;;179.17;35.40;;;;;;;3.41;100.00;100368.22;5262307;28;20044;-71
2022/11/21 03:59:20;;;;;;;208.93;38.20;;;;;;;3.38;100.00;100381.09;5261134;28;20033;-70
2022/11/21 04:01:52;;;;;;;120.80;33.10;;;;;;;3.43;100.00;100381.97;5260904;28;20121;-71
2022/11/21 04:04:23;;;;;;;155.17;36.43;;;;;;;3.36;100.00;100386.22;5261766;28;20060;-72
2022/11/21 04:06:54;;;;;;;90.47;30.57;;;;;;;3.49;100.00;100391.50;5261533;28;20055;-70
2022/11/21 04:09:26;;;;;;;146.77;34.97;;;;;;;3.51;100.00;100390.69;5263411;28;20044;-71
2022/11/21 04:11:57;;;;;;;127.57;34.07;;;;;;;3.46;100.00;100377.75;5265958;28;20053;-71
2022/11/21 04:14:29;;;;;;;155.03;36.23;;;;;;;3.43;100.00;100372.56;5263961;28;20025;-70
2022/11/21 04:17:00;;;;;;;111.03;33.27;;;;;;;3.49;100.00;100369.16;5266239;28;20079;-71
2022/11/21 04:19:31;;;;;;;140.63;36.50;;;;;;;3.44;100.00;100382.00;5263624;28;20033;-70
2022/11/21 04:22:02;;;;;;;91.83;32.87;;;;;;;3.45;100.00;100383.75;5265961;28;20116;-70
2022/11/21 04:24:34;;;;;;;90.03;33.33;;;;;;;3.54;100.00;100379.53;5265155;28;20495;-70
2022/11/21 04:27:05;;;;;;;181.53;39.23;;;;;;;3.50;100.00;100377.78;5266159;28;20041;-70
2022/11/21 04:29:36;;;;;;;94.80;31.70;;;;;;;3.56;100.00;100373.53;5264853;28;20021;-70
2022/11/21 04:32:08;;;;;;;172.23;36.77;;;;;;;3.55;100.00;100369.22;5265693;28;20061;-70
2022/11/21 04:34:40;;;;;;;156.60;33.87;;;;;;;3.61;100.00;100371.88;5265265;28;20137;-70
2022/11/21 04:37:12;;;;;;;117.82;34.85;;;;;;;3.59;100.00;100354.66;5265239;28;20035;-70
2022/11/21 04:39:43;;;;;;;96.67;31.83;;;;;;;3.60;100.00;100349.50;5265199;28;20037;-70
2022/11/21 04:42:14;;;;;;;93.50;32.47;;;;;;;3.60;100.00;100344.34;5264502;28;20067;-70
2022/11/21 04:44:46;;;;;;;104.97;32.27;;;;;;;3.60;100.00;100336.63;5264468;28;20040;-70
2022/11/21 04:47:17;;;;;;;114.73;28.93;;;;;;;3.54;100.00;100339.16;5265603;28;20036;-70
2022/11/21 04:49:48;;;;;;;61.97;28.57;;;;;;;3.51;100.00;100339.16;5263954;28;20079;-70
2022/11/21 04:52:20;;;;;;;47.03;28.07;;;;;;;3.45;100.00;100328.78;5266039;28;20044;-70
2022/11/21 04:54:51;;;;;;;65.73;28.47;;;;;;;3.40;100.00;100338.19;5263572;28;20033;-70
2022/11/21 04:57:22;;;;;;;62.30;27.93;;;;;;;3.33;100.00;100336.38;5265208;28;20033;-70
2022/11/21 04:59:55;;;;;;;62.53;30.10;;;;;;;3.22;100.00;100334.56;5264242;28;20029;-71
2022/11/21 05:02:26;;;;;;;74.97;30.35;;;;;;;3.11;100.00;100331.03;5265009;28;20083;-71
2022/11/21 05:04:57;;;;;;;54.50;27.10;;;;;;;3.14;100.00;100337.91;5264354;28;20436;-71
2022/11/21 05:07:29;;;;;;;82.60;29.37;;;;;;;3.14;100.00;100337.91;5263683;28;20124;-71
2022/11/21 05:10:00;;;;;;;53.73;28.37;;;;;;;3.13;100.00;100331.91;5264043;28;20061;-71
2022/11/21 05:15:21;;;;;;;74.25;27.90;;;;;;;3.13;100.00;100331.03;5265328;28;20041;-71
2022/11/21 05:17:53;;;;;;;268.17;34.40;;;;;;;3.14;100.00;100327.59;5264429;28;20029;-75
2022/11/21 05:20:24;;;;;;;405.33;37.63;;;;;;;3.12;100.00;100325.00;5262045;28;20036;-71
2022/11/21 05:22:55;;;;;;;320.50;32.00;;;;;;;3.15;100.00;100317.31;5263940;28;20388;-70
2022/11/21 05:25:27;;;;;;;202.17;31.67;;;;;;;3.16;100.00;100316.47;5264531;28;20108;-71
2022/11/21 05:27:58;;;;;;;340.60;38.13;;;;;;;3.16;100.00;100313.91;5263506;28;20488;-70
2022/11/21 05:30:29;;;;;;;346.90;37.73;;;;;;;3.19;100.00;100316.50;5264626;28;20435;-70
2022/11/21 05:33:01;;;;;;;158.70;30.77;;;;;;;3.22;100.00;100301.09;5263885;28;20654;-70
2022/11/21 05:35:32;;;;;;;168.13;27.77;;;;;;;3.20;100.00;100304.50;5264028;28;20388;-70
2022/11/21 05:38:03;;;;;;;159.03;29.83;;;;;;;3.15;100.00;100304.44;5263659;28;20028;-70
2022/11/21 05:40:35;;;;;;;140.60;29.60;;;;;;;3.16;100.00;100302.75;5264503;28;20116;-70
2022/11/21 05:45:58;;;;;;;66.13;23.95;;;;;;;3.15;100.00;100289.00;5264164;28;20073;-70
2022/11/21 05:48:29;;;;;;;47.50;23.30;;;;;;;3.21;100.00;100298.50;5277204;28;20060;-70
2022/11/21 05:51:01;;;;;;;44.27;23.90;;;;;;;3.24;100.00;100299.38;5284883;28;20029;-70
2022/11/21 05:53:33;;;;;;;33.63;24.07;;;;;;;3.28;100.00;100293.44;5284791;28;20036;-70
2022/11/21 05:56:07;;;;;;;35.63;22.17;;;;;;;3.35;100.00;100304.66;5283939;28;20040;-70
2022/11/21 05:58:39;;;;;;;50.17;31.67;;;;;;;3.38;100.00;100298.63;5284764;28;20043;-70
2022/11/21 06:01:13;;;;;;;96.40;60.33;;;;;;;3.40;100.00;100300.38;5284570;28;20033;-70
2022/11/21 06:03:44;;;;;;;48.40;32.03;;;;;;;3.36;100.00;100290.88;5284144;28;20344;-70
2022/11/21 06:06:16;;;;;;;39.17;26.33;;;;;;;3.42;100.00;100288.38;5284053;28;20028;-70
2022/11/21 06:08:47;;;;;;;41.73;27.87;;;;;;;3.42;100.00;100290.09;5284402;28;20032;-70
2022/11/21 06:11:18;;;;;;;35.10;24.37;;;;;;;3.44;100.00;100293.53;5282907;28;20028;-70
2022/11/21 06:13:51;;;;;;;33.27;22.43;;;;;;;3.49;100.00;100293.59;5284245;28;20028;-70
2022/11/21 06:16:22;;;;;;;;;;;;;;;3.55;100.00;100294.50;5284317;28;20037;-70
2022/11/21 06:18:54;;;;;;;34.08;22.70;;;;;;;3.61;100.00;100289.38;5284156;28;20465;-70
2022/11/21 06:21:27;;;;;;;33.37;21.63;;;;;;;3.65;100.00;100285.13;5266267;28;20070;-70
2022/11/21 06:23:59;;;;;;;38.05;23.20;;;;;;;3.71;100.00;100281.72;5284385;28;20114;-70
2022/11/21 06:26:30;;;;;;;38.47;23.20;;;;;;;3.83;100.00;100279.22;5284412;28;20060;-70
2022/11/21 06:29:02;;;;;;;47.50;27.07;;;;;;;3.85;100.00;100285.28;5284401;28;20483;-70
2022/11/21 06:31:33;;;;;;;42.87;26.23;;;;;;;3.87;100.00;100273.25;5282624;28;20116;-70
2022/11/21 06:34:04;;;;;;;39.10;25.97;;;;;;;3.86;100.00;100274.09;5282633;28;20033;-69
2022/11/21 06:36:36;;;;;;;48.77;28.30;;;;;;;3.82;100.00;100262.91;5282671;28;20242;-69
2022/11/21 06:39:07;;;;;;;51.50;29.60;;;;;;;3.79;100.00;100262.03;5283985;28;20033;-69
2022/11/21 06:41:38;;;;;;;45.43;28.73;;;;;;;3.79;100.00;100264.59;5284269;28;20055;-70
2022/11/21 06:44:10;;;;;;;42.30;28.70;;;;;;;3.73;100.00;100261.97;5283121;28;20035;-70
2022/11/21 06:46:41;;;;;;;46.13;28.70;;;;;;;3.76;100.00;100269.72;5282156;28;20483;-69
2022/11/21 06:49:12;;;;;;;46.50;31.27;;;;;;;3.70;100.00;100267.97;5283860;28;20528;-69
2022/11/21 06:51:44;;;;;;;40.30;28.10;;;;;;;3.69;100.00;100273.09;5283742;28;20138;-70
2022/11/21 06:54:15;;;;;;;44.20;28.53;;;;;;;3.63;100.00;100258.47;5283533;28;20040;-70
2022/11/21 06:56:46;;;;;;;49.43;28.73;;;;;;;3.69;100.00;100265.38;5283590;28;20396;-69
2022/11/21 06:59:18;;;;;;;45.27;29.33;;;;;;;3.69;100.00;100260.22;5283725;28;20037;-70
2022/11/21 07:01:49;;;;;;;49.43;31.27;;;;;;;3.71;100.00;100263.69;5283664;28;20178;-70
2022/11/21 07:04:20;;;;;;;41.40;28.63;;;;;;;3.73;100.00;100256.81;5283374;28;20075;-70
2022/11/21 07:06:52;;;;;;;40.60;28.27;;;;;;;3.65;100.00;100256.75;5282616;28;20064;-70
2022/11/21 07:09:23;;;;;;;47.77;29.70;;;;;;;3.68;100.00;100261.94;5283405;28;20087;-70
2022/11/21 07:15:00;;;;;;;44.05;29.17;;;;;;;3.72;100.00;100248.22;5283573;28;20435;-70
2022/11/21 07:17:31;;;;;;;49.47;28.17;;;;;;;3.74;100.00;100245.66;5283038;28;20029;-70
2022/11/21 07:20:03;;;;;;;41.83;26.83;;;;;;;3.70;100.00;100246.47;5281800;28;20059;-70
2022/11/21 07:22:34;;;;;;;44.90;28.27;;;;;;;3.67;100.00;100246.47;5283098;28;20467;-70
2022/11/21 07:25:06;;;;;;;46.33;27.57;;;;;;;3.73;100.00;100242.19;5283234;28;20116;-70
2022/11/21 07:27:37;;;;;;;38.53;25.93;;;;;;;3.80;100.00;100243.97;5283313;28;20145;-70
2022/11/21 07:30:09;;;;;;;41.73;25.97;;;;;;;3.82;100.00;100236.25;5282910;28;20032;-70
2022/11/21 07:32:41;;;;;;;41.53;26.17;;;;;;;3.85;100.00;100241.44;5281948;28;20431;-70
2022/11/21 07:35:12;;;;;;;40.27;25.80;;;;;;;3.91;100.00;100241.47;5282957;28;20064;-70
2022/11/21 07:37:43;;;;;;;45.40;26.37;;;;;;;3.95;100.00;100239.78;5282878;28;20028;-70
2022/11/21 07:40:15;;;;;;;36.83;23.03;;;;;;;3.97;100.00;100244.06;5282948;28;20028;-70
2022/11/21 07:42:46;;;;;;;36.30;21.77;;;;;;;3.98;100.00;100248.38;5282655;28;20021;-70
2022/11/21 07:45:18;;;;;;;36.47;22.07;;;;;;;4.00;100.00;100236.34;5282702;28;20025;-70
2022/11/21 07:47:57;;;;;;;36.20;21.57;;;;;;;4.02;100.00;100241.50;5282926;28;20035;-70
2022/11/21 07:50:29;;;;;;;34.00;20.63;;;;;;;4.02;100.00;100249.25;5282769;28;20033;-70
2022/11/21 07:53:03;;;;;;;32.75;18.80;;;;;;;4.03;100.00;100242.41;5281804;28;20032;-70
2022/11/21 07:55:34;;;;;;;31.02;18.45;;;;;;;4.05;100.00;100235.53;5281417;28;20028;-70
2022/11/21 07:58:12;;;;;;;36.37;18.20;;;;;;;4.07;100.00;100239.81;5283092;28;20035;-70
2022/11/21 08:00:43;;;;;;;29.20;17.73;;;;;;;4.09;100.00;100234.66;5282772;28;20025;-70
2022/11/21 08:03:14;;;;;;;33.70;18.13;;;;;;;4.11;100.00;100228.66;5282914;28;20024;-71
2022/11/21 08:05:46;;;;;;;28.07;17.63;;;;;;;4.13;100.00;100226.09;5282749;28;20154;-70
2022/11/21 08:08:17;;;;;;;29.03;15.73;;;;;;;4.13;100.00;100223.53;5282040;28;20033;-70
2022/11/21 08:10:50;;;;;;;31.07;16.17;;;;;;;4.10;100.00;100221.78;5282926;28;20025;-70
2022/11/21 08:13:21;;;;;;;24.42;16.85;;;;;;;4.04;100.00;100215.72;5281096;28;20044;-70
2022/11/21 08:15:53;;;;;;;27.83;15.50;;;;;;;3.99;100.00;100226.91;5282449;28;20041;-70
2022/11/21 08:18:25;;;;;;;21.33;14.67;;;;;;;4.01;100.00;100227.78;5282504;28;20085;-70
2022/11/21 08:20:59;;;;;;;23.88;14.43;;;;;;;4.12;100.00;100219.22;5282826;28;20456;-71
2022/11/21 08:23:31;;;;;;;27.42;14.38;;;;;;;4.18;100.00;100224.41;5282756;28;20582;-71
2022/11/21 08:26:02;;;;;;;20.47;13.63;;;;;;;4.33;100.00;100218.44;5282292;28;20115;-70
2022/11/21 08:28:34;;;;;;;29.93;14.47;;;;;;;4.40;100.00;100199.53;5280925;28;20081;-70
2022/11/21 08:31:05;;;;;;;19.80;13.00;;;;;;;4.57;100.00;100202.16;5282324;28;20033;-70
2022/11/21 08:33:37;;;;;;;24.00;12.63;;;;;;;4.66;100.00;100196.16;5281084;28;20029;-70
2022/11/21 08:36:09;;;;;;;23.03;12.47;;;;;;;4.75;100.00;100186.72;5282069;28;20039;-71
2022/11/21 08:38:40;;;;;;;23.92;10.95;;;;;;;4.89;100.00;100173.81;5282493;28;20036;-70
2022/11/21 08:44:02;;;;;;;15.07;8.55;;;;;;;5.02;100.00;100178.97;5282730;28;20411;-70
2022/11/21 08:46:36;;;;;;;22.60;9.40;;;;;;;5.15;100.00;100175.53;5282092;28;20036;-71
2022/11/21 08:49:07;;;;;;;13.10;7.25;;;;;;;5.23;100.00;100173.81;5281015;28;20041;-71
2022/11/21 08:51:39;;;;;;;20.50;8.97;;;;;;;5.26;100.00;100191.03;5282129;28;20037;-71
2022/11/21 08:54:10;;;;;;;15.30;6.57;;;;;;;5.42;100.00;100184.97;5282234;28;20032;-70
2022/11/21 08:56:42;;;;;;;14.30;6.27;;;;;;;5.40;100.00;100189.28;5286025;28;20111;-70
2022/11/21 08:59:14;;;;;;;16.48;5.60;;;;;;;5.59;100.00;100171.19;5285947;28;20036;-70
2022/11/21 09:01:45;;;;;;;15.60;5.68;;;;;;;5.84;100.00;100172.84;5285643;28;20434;-71
2022/11/21 09:04:17;;;;;;;13.73;4.93;;;;;;;6.10;100.00;100171.03;5284151;28;20037;-71
2022/11/21 09:06:48;;;;;;;12.73;5.10;;;;;;;6.02;100.00;100174.53;5285171;28;20455;-71
2022/11/21 09:09:20;;;;;;;12.20;5.33;;;;;;;6.23;100.00;100158.91;5285368;28;20112;-70
2022/11/21 09:11:51;;;;;;;15.23;6.20;;;;;;;6.50;100.00;100156.16;5285566;28;20049;-71
2022/11/21 09:20:03;;;;;;;11.93;4.97;;;;;;;6.69;100.00;100156.03;5285735;28;20400;-70
2022/11/21 09:22:35;;;;;;;10.27;4.83;;;;;;;6.85;100.00;100160.22;5285366;28;20037;-70
2022/11/21 09:25:07;;;;;;;11.30;3.97;;;;;;;7.11;100.00;100164.34;5285173;28;20086;-70
2022/11/21 09:27:38;;;;;;;12.70;4.30;;;;;;;7.06;100.00;100164.38;5285617;28;20237;-70
2022/11/21 09:30:10;;;;;;;8.73;4.20;;;;;;;7.32;100.00;100162.44;5285366;28;20032;-71
2022/11/21 09:32:41;;;;;;;11.02;4.35;;;;;;;7.37;100.00;100163.25;5284417;28;20048;-71
2022/11/21 09:35:13;;;;;;;10.73;5.27;;;;;;;7.65;100.00;100148.28;5285092;28;20036;-70
2022/11/21 09:37:44;;;;;;;9.40;3.53;;;;;;;7.81;98.45;100144.63;5284630;28;20032;-71
2022/11/21 09:40:16;;;;;;;9.93;4.03;;;;;;;8.19;98.88;100130.31;5284967;28;20503;-70
2022/11/21 09:43:06;;;;;;;10.03;3.93;;;;;;;8.12;96.25;100131.25;5285344;28;20035;-71
2022/11/21 09:45:47;;;;;;;10.52;4.40;;;;;;;8.36;96.26;100132.66;5284791;28;20031;-71
2022/11/21 09:48:44;;;;;;;12.20;4.38;;;;;;;8.23;94.25;100141.50;5284900;28;20033;-70
2022/11/21 09:51:18;;;;;;;11.40;4.38;;;;;;;8.21;91.53;100138.94;5284754;28;20028;-70
2022/11/21 09:54:04;;;;;;;12.52;3.92;;;;;;;8.60;95.79;100127.16;5283645;28;20040;-71
2022/11/21 09:56:40;;;;;;;8.57;4.38;;;;;;;8.69;92.13;100127.03;5284568;28;20038;-70
2022/11/21 09:59:17;;;;;;;12.02;3.95;;;;;;;8.96;91.93;100122.28;5284678;28;20445;-70
2022/11/21 10:01:48;;;;;;;9.90;4.18;;;;;;;9.20;89.94;100119.25;5284450;28;20074;-72
2022/11/21 10:04:20;;;;;;;7.13;3.73;;;;;;;9.25;87.14;100117.41;5283520;28;20036;-70
2022/11/21 10:06:57;;;;;;;7.80;3.40;;;;;;;9.23;86.03;100123.53;5283131;28;20033;-71
2022/11/21 10:09:37;;;;;;;10.45;4.55;;;;;;;9.25;85.67;100112.19;5284656;28;20064;-71
2022/11/21 10:12:37;;;;;;;12.80;3.38;;;;;;;9.17;83.77;100121.88;5284715;28;20051;-70
2022/11/21 10:15:25;;;;;;;11.07;3.42;;;;;;;8.89;86.38;100116.31;5284216;28;20043;-71
2022/11/21 10:18:18;;;;;;;9.80;4.13;;;;;;;8.88;86.95;100101.59;5284463;28;20039;-71
2022/11/21 10:21:01;;;;;;;9.57;3.55;;;;;;;8.70;85.87;100095.81;5284484;28;20467;-70
2022/11/21 10:23:45;;;;;;;11.55;3.90;;;;;;;8.69;86.52;100091.50;5282921;28;20035;-70
2022/11/21 10:26:19;;;;;;;9.43;4.18;;;;;;;8.83;85.79;100078.28;5284100;28;20034;-71
2022/11/21 10:28:56;;;;;;;6.70;3.40;;;;;;;9.31;84.90;100072.25;5282728;28;20029;-70
2022/11/21 10:31:35;;;;;;;10.73;3.08;;;;;;;9.31;83.83;100078.28;5283964;28;20029;-72
2022/11/21 10:34:14;;;;;;;14.55;5.30;;;;;;;9.19;82.95;100072.44;5284053;28;20036;-72
2022/11/21 10:36:52;;;;;;;9.80;3.72;;;;;;;9.12;84.92;100067.38;5283346;28;20028;-72
2022/11/21 10:39:47;;;;;;;9.45;3.67;;;;;;;9.27;85.09;100066.25;5283969;28;20033;-70
2022/11/21 10:42:37;;;;;;;10.73;4.10;;;;;;;9.13;84.71;100058.69;5282085;28;20024;-71
2022/11/21 10:45:18;;;;;;;9.73;4.22;;;;;;;9.13;83.78;100065.63;5283722;28;20064;-70
2022/11/21 10:47:51;;;;;;;7.55;3.75;;;;;;;9.17;83.14;100054.28;5283938;28;20123;-70
2022/11/21 10:51:00;;;;;;;12.48;4.07;;;;;;;9.77;82.51;100058.31;5283254;28;20058;-70
2022/11/21 10:56:25;;;;;;;13.63;3.33;;;;;;;11.20;79.56;100045.34;5283978;28;20071;-69
2022/11/21 10:58:58;;;;;;;10.95;3.38;;;;;;;11.38;74.22;100047.47;5283271;28;20032;-71
2022/11/21 11:01:32;;;;;;;12.27;4.22;;;;;;;11.51;72.26;100037.50;5283298;28;20114;-71
2022/11/21 11:04:09;;;;;;;10.32;3.50;;;;;;;11.71;71.52;100036.94;5283503;28;20040;-71
2022/11/21 11:06:43;;;;;;;12.35;3.85;;;;;;;11.46;68.85;100021.13;5283292;28;20032;-71
2022/11/21 11:09:21;;;;;;;9.02;4.13;;;;;;;11.67;70.23;100020.53;5283116;28;20060;-71
2022/11/21 11:12:13;;;;;;;10.82;4.53;;;;;;;12.21;68.96;100023.28;5283312;28;20152;-70
2022/11/21 11:14:51;;;;;;;9.63;3.87;;;;;;;13.32;67.55;100011.66;5272226;28;20492;-70
2022/11/21 11:17:31;;;;;;;13.18;3.80;;;;;;;13.75;63.64;100007.47;5282899;28;20099;-71
2022/11/21 11:20:28;;;;;;;8.55;3.58;;;;;;;14.26;64.16;100015.09;5282708;28;20059;-71
2022/11/21 11:23:13;;;;;;;7.07;3.10;;;;;;;14.77;59.93;100000.78;5282505;28;20305;-71
2022/11/21 11:25:47;;;;;;;9.13;3.50;;;;;;;13.86;58.00;99991.31;5282610;28;20036;-71
2022/11/21 11:28:19;;;;;;;10.18;3.45;;;;;;;14.33;60.62;99991.22;5282054;28;20040;-69
2022/11/21 11:30:53;;;;;;;8.95;3.88;;;;;;;14.69;57.46;99990.59;5282634;28;20028;-70
2022/11/21 11:33:39;;;;;;;13.75;3.72;;;;;;;14.94;54.27;99997.41;5281779;28;20029;-73
2022/11/21 11:36:13;;;;;;;9.50;3.85;;;;;;;15.06;52.90;99983.75;5283004;28;20029;-71
2022/11/21 11:38:52;;;;;;;7.90;3.22;;;;;;;14.71;52.36;99973.03;5281138;28;20089;-71
2022/11/21 11:47:29;;;;;;;7.72;4.03;;;;;;;15.22;53.18;99965.56;5283304;28;20475;-71
2022/11/21 11:47:52;;;;;;;8.50;3.58;;;;;;;15.34;51.67;99940.50;5282379;28;20040;-71
2022/11/21 11:50:46;;;;;;;7.10;3.70;;;;;;;14.95;50.39;99931.75;5281651;28;20028;-71
2022/11/21 11:53:21;;;;;;;7.25;3.00;;;;;;;14.84;50.17;99928.75;5282439;28;20438;-71
2022/11/21 11:56:05;;;;;;;8.43;3.30;;;;;;;14.84;50.30;99920.03;5281494;28;20119;-71
2022/11/21 11:58:55;;;;;;;7.97;2.97;;;;;;;15.88;52.00;99910.91;5282893;28;20028;-71
2022/11/21 12:01:42;;;;;;;8.63;3.40;;;;;;;16.00;48.71;99911.16;5282871;28;20052;-71
2022/11/21 12:04:20;;;;;;;7.47;2.70;;;;;;;16.29;47.63;99905.34;5281500;28;20029;-71
2022/11/21 12:07:05;;;;;;;8.60;3.38;;;;;;;15.71;46.09;99895.91;5282701;28;20376;-72
2022/11/21 12:09:44;;;;;;;9.13;3.38;;;;;;;15.86;48.17;99890.78;5282800;28;20032;-71